createdAt,value
2022-09-23T00:00:18.951Z,99162.28
2022-09-23T00:02:20.724Z,99176.69
2022-09-23T00:04:22.499Z,99167.66
2022-09-23T00:06:24.278Z,99175.56
2022-09-23T00:08:26.031Z,99175.72
2022-09-23T00:10:28.585Z,99173.03
2022-09-23T00:12:32.647Z,99172.16
2022-09-23T00:14:34.317Z,99174.72
2022-09-23T00:16:36.238Z,99174.72
2022-09-23T00:18:38.166Z,99172.03
2022-09-23T00:20:39.855Z,99166.66
2022-09-23T00:22:41.561Z,99168.50
2022-09-23T00:24:43.246Z,99175.44
2022-09-23T00:26:44.954Z,99174.72
2022-09-23T00:28:47.260Z,99178.41
2022-09-23T00:30:48.994Z,99175.72
2022-09-23T00:32:50.797Z,99175.72
2022-09-23T00:34:52.449Z,99175.72
2022-09-23T00:36:54.170Z,99175.56
2022-09-23T00:38:56.032Z,99176.41
2022-09-23T00:40:57.865Z,99169.34
2022-09-23T00:42:59.507Z,99177.41
2022-09-23T00:45:01.334Z,99180.09
2022-09-23T00:47:03.121Z,99174.72
2022-09-23T00:49:23.106Z,99180.09
2022-09-23T00:51:27.298Z,99180.09
2022-09-23T00:53:28.996Z,99175.72
2022-09-23T00:55:38.580Z,99176.41
2022-09-23T00:57:40.397Z,99177.41
2022-09-23T00:59:42.474Z,99180.09
2022-09-23T01:01:44.245Z,99185.47
2022-09-23T01:03:46.127Z,99181.09
2022-09-23T01:05:47.833Z,99183.78
2022-09-23T01:07:49.484Z,99180.09
2022-09-23T01:09:51.261Z,99184.47
2022-09-23T01:12:00.712Z,99182.78
2022-09-23T01:14:23.982Z,99194.25
2022-09-23T01:16:54.177Z,99187.03
2022-09-23T01:19:31.260Z,99185.34
2022-09-23T01:21:43.923Z,99184.63
2022-09-23T01:24:00.198Z,99190.84
2022-09-23T01:26:20.406Z,99178.53
2022-09-23T01:28:30.764Z,99181.09
2022-09-23T01:30:59.870Z,99176.69
2022-09-23T01:33:03.021Z,99177.53
2022-09-23T01:35:15.712Z,99180.22
2022-09-23T01:37:29.207Z,99184.63
2022-09-23T01:39:38.045Z,99183.78
2022-09-23T01:41:50.604Z,99188.16
2022-09-23T01:44:00.150Z,99190.84
2022-09-23T01:46:01.838Z,99190.84
2022-09-23T01:48:09.707Z,99192.53
2022-09-23T01:50:22.792Z,99201.59
2022-09-23T01:52:39.651Z,99192.53
2022-09-23T01:55:05.131Z,99197.78
2022-09-23T01:57:16.239Z,99197.66
2022-09-23T01:59:18.953Z,99197.66
2022-09-23T02:01:46.265Z,99192.28
2022-09-23T02:03:55.031Z,99187.75
2022-09-23T02:06:00.461Z,99191.28
2022-09-23T02:08:06.330Z,99193.97
2022-09-23T02:10:18.870Z,99194.97
2022-09-23T02:12:20.955Z,99195.09
2022-09-23T02:14:38.342Z,99195.22
2022-09-23T02:16:42.699Z,99183.50
2022-09-23T02:18:57.410Z,99191.44
2022-09-23T02:21:02.706Z,99186.06
2022-09-23T02:23:07.275Z,99186.75
2022-09-23T02:25:09.137Z,99190.56
2022-09-23T02:27:33.799Z,99189.72
2022-09-23T02:29:54.119Z,99193.25
2022-09-23T02:32:18.622Z,99190.56
2022-09-23T02:34:40.137Z,99196.94
2022-09-23T02:36:49.638Z,99195.22
2022-09-23T02:38:54.663Z,99198.78
2022-09-23T02:41:00.767Z,99195.22
2022-09-23T02:43:08.322Z,99188.03
2022-09-23T02:45:09.980Z,99190.84
2022-09-23T02:47:11.776Z,99194.38
2022-09-23T02:49:23.294Z,99190.84
2022-09-23T02:51:24.986Z,99187.31
2022-09-23T02:53:26.729Z,99184.75
2022-09-23T02:55:29.634Z,99186.59
2022-09-23T02:57:31.394Z,99188.28
2022-09-23T02:59:33.076Z,99185.75
2022-09-23T03:01:43.827Z,99191.13
2022-09-23T03:04:06.803Z,99189.41
2022-09-23T03:06:16.074Z,99189.41
2022-09-23T03:08:51.221Z,99188.44
2022-09-23T03:11:21.910Z,99190.13
2022-09-23T03:13:46.235Z,99192.81
2022-09-23T03:15:59.540Z,99195.38
2022-09-23T03:18:25.431Z,99189.16
2022-09-23T03:20:41.935Z,99186.47
2022-09-23T03:22:46.988Z,99195.38
2022-09-23T03:24:53.771Z,99197.22
2022-09-23T03:26:55.827Z,99191.13
2022-09-23T03:28:57.529Z,99205.28
2022-09-23T03:30:59.253Z,99194.53
2022-09-23T03:33:00.997Z,99201.72
2022-09-23T03:35:03.682Z,99198.19
2022-09-23T03:37:12.666Z,99197.34
2022-09-23T03:39:18.825Z,99196.22
2022-09-23T03:41:28.344Z,99197.06
2022-09-23T03:43:30.643Z,99195.22
2022-09-23T03:45:33.212Z,99189.16
2022-09-23T03:47:35.121Z,99192.69
2022-09-23T03:49:37.474Z,99182.66
2022-09-23T03:51:42.746Z,99196.94
2022-09-23T03:53:46.307Z,99187.03
2022-09-23T03:55:47.973Z,99186.91
2022-09-23T03:57:49.652Z,99189.31
2022-09-23T03:59:51.498Z,99177.56
2022-09-23T04:01:53.621Z,99174.88
2022-09-23T04:03:55.348Z,99178.69
2022-09-23T04:05:57.031Z,99175.31
2022-09-23T04:07:58.730Z,99183.94
2022-09-23T04:10:00.404Z,99179.00
2022-09-23T04:12:02.190Z,99176.16
2022-09-23T04:14:03.887Z,99175.34
2022-09-23T04:16:05.825Z,99181.53
2022-09-23T04:18:07.586Z,99188.19
2022-09-23T04:20:09.621Z,99186.50
2022-09-23T04:22:11.401Z,99181.66
2022-09-23T04:24:13.347Z,99183.66
2022-09-23T04:26:15.134Z,99176.88
2022-09-23T04:28:16.853Z,99159.88
2022-09-23T04:30:18.571Z,99160.59
2022-09-23T04:32:20.270Z,99156.06
2022-09-23T04:34:22.087Z,99161.00
2022-09-23T04:36:23.966Z,99160.06
2022-09-23T04:38:25.780Z,99159.75
2022-09-23T04:40:27.748Z,99161.47
2022-09-23T04:42:29.604Z,99169.09
2022-09-23T04:44:31.320Z,99161.16
2022-09-23T04:46:33.929Z,99156.59
2022-09-23T04:48:36.309Z,99156.00
2022-09-23T04:50:38.174Z,99150.91
2022-09-23T04:52:39.896Z,99148.34
2022-09-23T04:54:41.597Z,99125.91
2022-09-23T04:56:43.368Z,99133.09
2022-09-23T04:58:45.120Z,99125.31
2022-09-23T05:00:46.842Z,99129.84
2022-09-23T05:02:49.218Z,99135.94
2022-09-23T05:04:50.868Z,99124.59
2022-09-23T05:06:52.577Z,99124.47
2022-09-23T05:08:54.842Z,99126.56
2022-09-23T05:10:57.903Z,99129.13
2022-09-23T05:12:59.604Z,99124.59
2022-09-23T05:15:01.323Z,99132.66
2022-09-23T05:17:03.087Z,99140.72
2022-09-23T05:19:04.859Z,99142.69
2022-09-23T05:21:06.768Z,99147.31
2022-09-23T05:23:08.474Z,99147.19
2022-09-23T05:25:10.172Z,99147.19
2022-09-23T05:27:11.848Z,99138.19
2022-09-23T05:29:13.629Z,99139.03
2022-09-23T05:31:20.066Z,99141.84
2022-09-23T05:33:22.447Z,99139.53
2022-09-23T05:35:24.290Z,99136.00
2022-09-23T05:37:26.025Z,99137.84
2022-09-23T05:39:27.724Z,99141.25
2022-09-23T05:41:29.445Z,99140.25
2022-09-23T05:43:31.827Z,99137.56
2022-09-23T05:45:33.672Z,99135.88
2022-09-23T05:47:35.410Z,99130.50
2022-09-23T05:49:58.191Z,99132.19
2022-09-23T05:51:58.798Z,99136.22
2022-09-23T05:54:00.709Z,99137.91
2022-09-23T05:58:09.439Z,99145.69
2022-09-23T06:00:11.557Z,99145.84
2022-09-23T06:02:13.550Z,99145.25
2022-09-23T06:04:15.247Z,99149.03
2022-09-23T06:06:18.456Z,99147.56
2022-09-23T06:08:20.238Z,99148.56
2022-09-23T06:10:21.935Z,99144.88
2022-09-23T06:12:23.637Z,99155.63
2022-09-23T06:14:25.306Z,99145.88
2022-09-23T06:16:27.128Z,99147.56
2022-09-23T06:18:28.899Z,99147.56
2022-09-23T06:20:30.544Z,99149.28
2022-09-23T06:22:33.969Z,99158.06
2022-09-23T06:24:37.697Z,99161.47
2022-09-23T06:26:39.349Z,99158.78
2022-09-23T06:28:41.969Z,99155.38
2022-09-23T06:30:43.671Z,99158.19
2022-09-23T06:32:51.308Z,99165.16
2022-09-23T06:34:52.922Z,99166.84
2022-09-23T06:36:54.639Z,99169.78
2022-09-23T06:38:56.317Z,99172.47
2022-09-23T06:40:58.252Z,99170.78
2022-09-23T06:43:00.782Z,99182.50
2022-09-23T06:45:02.487Z,99188.97
2022-09-23T06:47:04.342Z,99185.31
2022-09-23T06:49:06.123Z,99184.22
2022-09-23T06:51:07.886Z,99167.00
2022-09-23T06:53:09.539Z,99174.06
2022-09-23T06:55:11.192Z,99172.38
2022-09-23T06:57:12.911Z,99173.47
2022-09-23T06:59:14.627Z,99170.06
2022-09-23T07:01:17.165Z,99165.53
2022-09-23T07:03:18.970Z,99161.00
2022-09-23T07:05:20.841Z,99167.94
2022-09-23T07:07:22.602Z,99168.69
2022-09-23T07:09:24.369Z,99181.16
2022-09-23T07:11:26.611Z,99174.66
2022-09-23T07:13:28.453Z,99163.91
2022-09-23T07:15:30.151Z,99162.91
2022-09-23T07:17:31.814Z,99151.19
2022-09-23T07:19:33.444Z,99147.50
2022-09-23T07:21:35.160Z,99155.69
2022-09-23T07:23:36.891Z,99157.41
2022-09-23T07:25:38.589Z,99153.88
2022-09-23T07:27:40.266Z,99154.84
2022-09-23T07:29:48.778Z,99165.88
2022-09-23T07:31:50.955Z,99171.25
2022-09-23T07:33:55.994Z,99158.94
2022-09-23T07:35:57.745Z,99171.50
2022-09-23T07:37:59.814Z,99180.44
2022-09-23T07:40:01.741Z,99173.22
2022-09-23T07:42:04.101Z,99167.09
2022-09-23T07:44:05.817Z,99161.84
2022-09-23T07:46:13.435Z,99165.66
2022-09-23T07:48:15.237Z,99160.28
2022-09-23T07:50:17.132Z,99164.69
2022-09-23T07:52:18.876Z,99168.34
2022-09-23T07:54:20.851Z,99170.06
2022-09-23T07:56:26.425Z,99168.09
2022-09-23T07:58:28.108Z,99169.78
2022-09-23T08:00:29.873Z,99166.38
2022-09-23T08:02:31.592Z,99160.16
2022-09-23T08:04:33.493Z,99158.31
2022-09-23T08:06:35.228Z,99160.88
2022-09-23T08:08:37.130Z,99170.06
2022-09-23T08:10:38.872Z,99160.44
2022-09-23T08:12:40.763Z,99156.75
2022-09-23T08:14:42.556Z,99153.94
2022-09-23T08:16:44.908Z,99158.31
2022-09-23T08:18:46.839Z,99152.09
2022-09-23T08:20:48.864Z,99152.94
2022-09-23T08:22:51.089Z,99151.97
2022-09-23T08:24:54.701Z,99147.44
2022-09-23T08:26:58.334Z,99135.63
2022-09-23T08:29:00.481Z,99133.78
2022-09-23T08:31:02.270Z,99144.41
2022-09-23T08:33:04.133Z,99141.44
2022-09-23T08:35:06.282Z,99138.75
2022-09-23T08:37:10.912Z,99135.09
2022-09-23T08:39:19.178Z,99133.09
2022-09-23T08:41:29.934Z,99133.09
2022-09-23T08:43:32.991Z,99135.78
2022-09-23T08:45:35.108Z,99142.16
2022-09-23T08:47:44.168Z,99141.44
2022-09-23T08:50:09.243Z,99142.28
2022-09-23T08:52:21.140Z,99142.44
2022-09-23T08:54:22.947Z,99131.81
2022-09-23T08:56:24.663Z,99134.38
2022-09-23T08:58:46.156Z,99137.78
2022-09-23T09:01:10.940Z,99136.78
2022-09-23T09:03:20.113Z,99141.72
2022-09-23T09:05:25.870Z,99139.88
2022-09-23T09:07:38.072Z,99146.97
2022-09-23T09:09:59.559Z,99152.31
2022-09-23T09:12:29.327Z,99159.50
2022-09-23T09:15:01.865Z,99164.16
2022-09-23T09:17:49.567Z,99157.09
2022-09-23T09:20:02.308Z,99148.03
2022-09-23T09:22:03.980Z,99140.25
2022-09-23T09:24:12.518Z,99131.34
2022-09-23T09:26:29.606Z,99126.81
2022-09-23T09:28:46.760Z,99124.88
2022-09-23T09:30:52.867Z,99127.44
2022-09-23T09:32:54.433Z,99121.91
2022-09-23T09:34:58.454Z,99111.88
2022-09-23T09:37:11.729Z,99105.66
2022-09-23T09:39:16.142Z,99111.88
2022-09-23T09:41:17.946Z,99104.53
2022-09-23T09:43:19.802Z,99099.16
2022-09-23T09:45:53.860Z,99085.88
2022-09-23T09:48:10.606Z,99089.44
2022-09-23T09:50:13.139Z,99091.25
2022-09-23T09:52:19.524Z,99097.47
2022-09-23T09:54:23.993Z,99101.97
2022-09-23T09:56:31.268Z,99108.22
2022-09-23T09:58:35.881Z,99104.53
2022-09-23T10:00:42.748Z,99116.13
2022-09-23T10:02:44.571Z,99111.03
2022-09-23T10:04:46.302Z,99116.41
2022-09-23T10:07:15.383Z,99105.53
2022-09-23T10:09:17.611Z,99106.22
2022-09-23T10:11:19.296Z,99104.53
2022-09-23T10:13:24.044Z,99104.53
2022-09-23T10:15:32.738Z,99104.53
2022-09-23T10:17:34.502Z,99113.59
2022-09-23T10:19:36.441Z,99109.91
2022-09-23T10:21:38.082Z,99113.59
2022-09-23T10:23:47.764Z,99116.97
2022-09-23T10:26:02.513Z,99109.78
2022-09-23T10:28:24.246Z,99114.44
2022-09-23T10:30:27.007Z,99114.56
2022-09-23T10:32:33.092Z,99118.97
2022-09-23T10:34:34.757Z,99119.81
2022-09-23T10:36:37.666Z,99119.81
2022-09-23T10:38:41.735Z,99118.09
2022-09-23T10:40:43.733Z,99119.81
2022-09-23T10:43:36.414Z,99117.84
2022-09-23T10:45:43.190Z,99116.97
2022-09-23T10:47:58.439Z,99113.31
2022-09-23T10:50:06.998Z,99107.94
2022-09-23T10:52:11.447Z,99099.16
2022-09-23T10:54:22.072Z,99093.94
2022-09-23T10:56:33.882Z,99088.44
2022-09-23T10:58:57.071Z,99081.22
2022-09-23T11:01:18.936Z,99074.28
2022-09-23T11:03:29.642Z,99083.06
2022-09-23T11:05:36.624Z,99074.88
2022-09-23T11:08:05.972Z,99074.16
2022-09-23T11:10:41.872Z,99070.63
2022-09-23T11:12:57.323Z,99068.63
2022-09-23T11:15:04.083Z,99067.78
2022-09-23T11:17:26.723Z,99073.03
2022-09-23T11:19:31.066Z,99075.72
2022-09-23T11:22:04.715Z,99070.47
2022-09-23T11:24:48.170Z,99053.50
2022-09-23T11:26:51.380Z,99053.38
2022-09-23T11:29:13.973Z,99046.28
2022-09-23T11:31:37.891Z,99048.97
2022-09-23T11:33:51.708Z,99043.78
2022-09-23T11:35:59.344Z,99035.56
2022-09-23T11:38:08.031Z,99038.09
2022-09-23T11:40:21.798Z,99038.09
2022-09-23T11:42:26.049Z,99039.78
2022-09-23T11:44:37.672Z,99039.78
2022-09-23T11:46:42.249Z,99040.50
2022-09-23T11:48:52.092Z,99045.03
2022-09-23T11:50:56.310Z,99043.47
2022-09-23T11:53:15.808Z,99044.91
2022-09-23T11:55:23.057Z,99044.63
2022-09-23T11:57:48.885Z,99041.22
2022-09-23T11:59:55.066Z,99032.19
2022-09-23T12:02:21.124Z,99035.56
2022-09-23T12:04:44.230Z,99037.84
2022-09-23T12:07:11.812Z,99043.94
2022-09-23T12:09:30.993Z,99045.22
2022-09-23T12:11:58.575Z,99041.81
2022-09-23T12:14:03.313Z,99035.00
2022-09-23T12:16:32.864Z,99027.97
2022-09-23T12:18:52.533Z,99027.97
2022-09-23T12:21:07.063Z,99037.69
2022-09-23T12:23:13.885Z,99037.69
2022-09-23T12:25:34.311Z,99051.31
2022-09-23T12:27:47.658Z,99043.38
2022-09-23T12:29:54.293Z,99054.00
2022-09-23T12:31:55.990Z,99052.97
2022-09-23T12:34:02.056Z,99043.22
2022-09-23T12:36:08.313Z,99045.34
2022-09-23T12:38:34.231Z,99046.31
2022-09-23T12:40:36.471Z,99048.03
2022-09-23T12:42:41.626Z,99043.22
2022-09-23T12:44:44.851Z,99033.16
2022-09-23T12:46:46.653Z,99025.94
2022-09-23T12:48:58.732Z,99034.94
2022-09-23T12:51:03.006Z,99034.66
2022-09-23T12:53:23.111Z,99028.16
2022-09-23T12:55:44.931Z,99014.41
2022-09-23T12:57:46.633Z,99007.78
2022-09-23T12:59:59.401Z,99003.81
2022-09-23T13:02:34.749Z,99000.16
2022-09-23T13:04:42.421Z,98999.59
2022-09-23T13:07:06.358Z,99004.69
2022-09-23T13:09:21.334Z,99013.59
2022-09-23T13:11:27.738Z,99013.78
2022-09-23T13:13:41.735Z,99009.22
2022-09-23T13:15:43.439Z,99001.59
2022-09-23T13:17:45.234Z,98996.78
2022-09-23T13:19:46.894Z,99003.25
2022-09-23T13:21:48.474Z,98998.88
2022-09-23T13:24:19.716Z,98994.44
2022-09-23T13:26:21.344Z,98988.34
2022-09-23T13:28:30.956Z,98991.81
2022-09-23T13:30:32.718Z,98996.09
2022-09-23T13:32:38.006Z,98991.00
2022-09-23T13:34:39.721Z,98986.06
2022-09-23T13:36:45.559Z,98994.28
2022-09-23T13:38:47.440Z,98987.53
2022-09-23T13:40:49.325Z,98987.97
2022-09-23T13:43:09.714Z,98984.25
2022-09-23T13:45:18.595Z,98980.16
2022-09-23T13:47:20.292Z,98992.06
2022-09-23T13:49:22.490Z,98986.91
2022-09-23T13:51:28.840Z,98991.16
2022-09-23T13:53:30.508Z,98986.06
2022-09-23T13:55:33.725Z,98984.84
2022-09-23T13:57:35.704Z,98985.03
2022-09-23T13:59:38.249Z,98977.34
2022-09-23T14:01:40.001Z,98972.78
2022-09-23T14:03:41.711Z,98971.19
2022-09-23T14:05:43.465Z,98973.72
2022-09-23T14:07:45.220Z,98965.06
2022-09-23T14:09:50.213Z,98969.69
2022-09-23T14:11:52.040Z,98972.13
2022-09-23T14:13:54.032Z,98972.00
2022-09-23T14:15:57.543Z,98970.28
2022-09-23T14:18:03.589Z,98965.75
2022-09-23T14:20:05.645Z,98970.19
2022-09-23T14:22:30.234Z,98971.44
2022-09-23T14:24:36.192Z,98967.13
2022-09-23T14:26:37.871Z,98962.03
2022-09-23T14:28:39.640Z,98952.25
2022-09-23T14:30:41.368Z,98964.50
2022-09-23T14:32:43.184Z,98955.50
2022-09-23T14:35:00.385Z,98954.56
2022-09-23T14:37:16.653Z,98942.63
2022-09-23T14:39:18.615Z,98956.25
2022-09-23T14:41:21.739Z,98954.94
2022-09-23T14:43:25.375Z,98957.00
2022-09-23T14:45:30.171Z,98960.72
2022-09-23T14:47:33.798Z,98960.31
2022-09-23T14:49:35.587Z,98965.72
2022-09-23T14:51:44.331Z,98962.53
2022-09-23T14:53:46.080Z,98960.59
2022-09-23T14:55:48.720Z,98962.84
2022-09-23T14:58:14.713Z,98962.84
2022-09-23T15:00:18.068Z,98960.03
2022-09-23T15:02:29.760Z,98959.75
2022-09-23T15:04:31.866Z,98958.50
2022-09-23T15:06:36.526Z,98951.03
2022-09-23T15:08:39.542Z,98948.50
2022-09-23T15:10:41.661Z,98944.84
2022-09-23T15:12:45.071Z,98941.25
2022-09-23T15:14:54.466Z,98935.34
2022-09-23T15:16:56.255Z,98935.91
2022-09-23T15:18:59.158Z,98928.28
2022-09-23T15:21:12.327Z,98930.69
2022-09-23T15:23:51.914Z,98934.84
2022-09-23T15:25:53.633Z,98927.59
2022-09-23T15:28:13.099Z,98934.84
2022-09-23T15:30:15.794Z,98936.81
2022-09-23T15:32:17.650Z,98931.44
2022-09-23T15:34:19.381Z,98939.06
2022-09-23T15:36:25.001Z,98936.25
2022-09-23T15:38:26.794Z,98937.34
2022-09-23T15:40:33.192Z,98930.03
2022-09-23T15:42:35.086Z,98935.56
2022-09-23T15:44:36.950Z,98934.47
2022-09-23T15:46:38.919Z,98939.53
2022-09-23T15:48:42.374Z,98940.03
2022-09-23T15:50:45.470Z,98938.25
2022-09-23T15:52:47.178Z,98931.72
2022-09-23T15:54:48.857Z,98935.88
2022-09-23T15:56:50.706Z,98935.56
2022-09-23T15:58:54.984Z,98936.50
2022-09-23T16:00:57.049Z,98937.44
2022-09-23T16:02:58.977Z,98930.28
2022-09-23T16:05:01.182Z,98937.59
2022-09-23T16:07:02.987Z,98932.91
2022-09-23T16:09:05.942Z,98934.09
2022-09-23T16:11:28.723Z,98923.69
2022-09-23T16:13:32.222Z,98928.47
2022-09-23T16:15:35.240Z,98919.00
2022-09-23T16:17:37.033Z,98925.44
2022-09-23T16:19:38.849Z,98922.41
2022-09-23T16:21:40.709Z,98923.63
2022-09-23T16:23:43.714Z,98917.97
2022-09-23T16:25:45.742Z,98918.22
2022-09-23T16:27:47.496Z,98914.16
2022-09-23T16:29:52.294Z,98924.22
2022-09-23T16:31:54.262Z,98919.28
2022-09-23T16:33:56.080Z,98913.25
2022-09-23T16:35:58.793Z,98909.75
2022-09-23T16:38:00.601Z,98910.66
2022-09-23T16:40:03.100Z,98914.84
2022-09-23T16:42:04.800Z,98909.44
2022-09-23T16:44:07.253Z,98906.13
2022-09-23T16:46:10.243Z,98900.50
2022-09-23T16:48:12.103Z,98895.59
2022-09-23T16:50:15.888Z,98895.16
2022-09-23T16:52:17.612Z,98897.22
2022-09-23T16:54:19.358Z,98891.66
2022-09-23T16:56:27.305Z,98894.69
2022-09-23T16:58:30.163Z,98899.75
2022-09-23T17:00:31.868Z,98890.41
2022-09-23T17:02:33.952Z,98890.09
2022-09-23T17:04:37.150Z,98889.13
2022-09-23T17:06:49.083Z,98884.34
2022-09-23T17:08:51.030Z,98886.09
2022-09-23T17:10:58.923Z,98879.53
2022-09-23T17:13:00.627Z,98885.59
2022-09-23T17:15:06.149Z,98887.47
2022-09-23T17:17:07.960Z,98883.75
2022-09-23T17:19:10.770Z,98883.75
2022-09-23T17:21:12.480Z,98864.50
2022-09-23T17:23:14.541Z,98872.28
2022-09-23T17:25:16.344Z,98872.59
2022-09-23T17:27:18.198Z,98874.81
2022-09-23T17:29:20.341Z,98880.03
2022-09-23T17:31:22.759Z,98864.50
2022-09-23T17:33:28.442Z,98869.75
2022-09-23T17:35:33.361Z,98858.44
2022-09-23T17:37:35.032Z,98847.59
2022-09-23T17:39:36.750Z,98847.28
2022-09-23T17:41:38.670Z,98846.75
2022-09-23T17:43:40.655Z,98847.28
2022-09-23T17:45:42.557Z,98834.63
2022-09-23T17:47:44.216Z,98844.06
2022-09-23T17:49:46.063Z,98841.03
2022-09-23T17:51:47.766Z,98847.63
2022-09-23T17:53:49.765Z,98837.13
2022-09-23T17:55:58.031Z,98833.28
2022-09-23T17:57:59.805Z,98843.38
2022-09-23T18:00:01.883Z,98839.34
2022-09-23T18:02:03.836Z,98837.63
2022-09-23T18:04:06.041Z,98839.94
2022-09-23T18:06:14.656Z,98836.22
2022-09-23T18:08:16.604Z,98840.38
2022-09-23T18:10:18.524Z,98846.22
2022-09-23T18:12:20.368Z,98844.75
2022-09-23T18:14:22.691Z,98846.06
2022-09-23T18:16:26.760Z,98842.19
2022-09-23T18:18:28.833Z,98834.53
2022-09-23T18:20:30.580Z,98840.44
2022-09-23T18:22:32.274Z,98837.41
2022-09-23T18:24:34.255Z,98837.72
2022-09-23T18:26:37.449Z,98828.63
2022-09-23T18:28:40.467Z,98831.53
2022-09-23T18:31:01.394Z,98829.63
2022-09-23T18:33:04.016Z,98824.59
2022-09-23T18:35:06.612Z,98825.16
2022-09-23T18:37:15.269Z,98817.06
2022-09-23T18:39:17.747Z,98820.66
2022-09-23T18:41:19.795Z,98816.47
2022-09-23T18:43:26.116Z,98810.56
2022-09-23T18:45:28.306Z,98808.88
2022-09-23T18:47:30.067Z,98808.38
2022-09-23T18:49:31.928Z,98800.19
2022-09-23T18:51:34.855Z,98805.22
2022-09-23T18:53:36.790Z,98799.13
2022-09-23T18:55:38.557Z,98793.00
2022-09-23T18:57:40.362Z,98805.16
2022-09-23T18:59:42.430Z,98804.91
2022-09-23T19:01:44.644Z,98793.75
2022-09-23T19:03:46.435Z,98798.56
2022-09-23T19:05:48.198Z,98794.34
2022-09-23T19:07:49.868Z,98793.72
2022-09-23T19:09:51.753Z,98790.59
2022-09-23T19:11:53.696Z,98781.00
2022-09-23T19:13:59.393Z,98776.88
2022-09-23T19:16:02.431Z,98777.94
2022-09-23T19:18:05.152Z,98777.09
2022-09-23T19:20:07.734Z,98776.84
2022-09-23T19:22:09.646Z,98772.22
2022-09-23T19:24:11.574Z,98768.06
2022-09-23T19:26:13.613Z,98771.72
2022-09-23T19:28:15.417Z,98765.16
2022-09-23T19:30:17.326Z,98778.28
2022-09-23T19:32:19.066Z,98764.38
2022-09-23T19:34:21.476Z,98758.88
2022-09-23T19:36:24.621Z,98765.59
2022-09-23T19:38:26.676Z,98763.78
2022-09-23T19:40:28.624Z,98756.72
2022-09-23T19:42:30.422Z,98764.34
2022-09-23T19:44:32.081Z,98764.53
2022-09-23T19:46:35.315Z,98757.03
2022-09-23T19:48:37.213Z,98766.03
2022-09-23T19:50:39.588Z,98758.88
2022-09-23T19:52:41.234Z,98748.06
2022-09-23T19:54:42.961Z,98755.03
2022-09-23T19:56:44.805Z,98756.34
2022-09-23T19:58:48.352Z,98742.50
2022-09-23T20:00:50.187Z,98745.50
2022-09-23T20:02:52.003Z,98745.09
2022-09-23T20:04:53.734Z,98741.75
2022-09-23T20:06:55.516Z,98739.19
2022-09-23T20:08:58.677Z,98730.28
2022-09-23T20:11:08.987Z,98730.44
2022-09-23T20:13:10.617Z,98727.88
2022-09-23T20:15:12.430Z,98722.94
2022-09-23T20:17:14.211Z,98716.91
2022-09-23T20:19:15.985Z,98720.56
2022-09-23T20:21:23.883Z,98716.34
2022-09-23T20:23:25.664Z,98714.63
2022-09-23T20:25:27.415Z,98714.91
2022-09-23T20:27:29.358Z,98708.69
2022-09-23T20:29:37.630Z,98706.31
2022-09-23T20:31:39.364Z,98705.31
2022-09-23T20:33:41.135Z,98699.41
2022-09-23T20:35:42.861Z,98692.31
2022-09-23T20:37:44.592Z,98691.34
2022-09-23T20:39:49.605Z,98691.50
2022-09-23T20:41:51.379Z,98687.13
2022-09-23T20:43:53.962Z,98688.94
2022-09-23T20:46:13.733Z,98677.53
2022-09-23T20:48:30.552Z,98672.28
2022-09-23T20:50:32.257Z,98672.28
2022-09-23T20:52:33.947Z,98671.44
2022-09-23T20:54:35.628Z,98661.53
2022-09-23T20:56:37.307Z,98661.69
2022-09-23T20:58:39.059Z,98652.91
2022-09-23T21:01:02.963Z,98655.59
2022-09-23T21:04:00.186Z,98655.59
2022-09-23T21:06:02.484Z,98651.09
2022-09-23T21:08:04.179Z,98644.00
2022-09-23T21:10:06.746Z,98637.78
2022-09-23T21:12:08.451Z,98644.84
2022-09-23T21:14:10.159Z,98641.19
2022-09-23T21:16:11.943Z,98635.81
2022-09-23T21:18:34.822Z,98637.78
2022-09-23T21:23:29.290Z,98633.44
2022-09-23T21:25:31.214Z,98624.50
2022-09-23T21:27:35.830Z,98629.88
2022-09-23T21:29:37.505Z,98625.38
2022-09-23T21:31:39.310Z,98625.38
2022-09-23T21:33:41.028Z,98621.97
2022-09-23T21:35:42.765Z,98617.75
2022-09-23T21:37:45.197Z,98616.88
2022-09-23T21:39:47.015Z,98607.00
2022-09-23T21:41:48.674Z,98609.53
2022-09-23T21:43:50.385Z,98606.13
2022-09-23T21:46:06.175Z,98603.63
2022-09-23T21:48:50.989Z,98588.34
2022-09-23T21:51:00.192Z,98588.34
2022-09-23T21:53:13.797Z,98577.59
2022-09-23T21:55:15.580Z,98584.97
2022-09-23T21:57:17.256Z,98575.88
2022-09-23T21:59:18.913Z,98579.59
2022-09-23T22:01:25.370Z,98574.34
2022-09-23T22:03:27.547Z,98573.50
2022-09-23T22:05:29.266Z,98566.28
2022-09-23T22:10:20.504Z,98558.22
2022-09-23T22:12:22.264Z,98551.19
2022-09-23T22:14:24.261Z,98542.09
2022-09-23T22:16:26.225Z,98541.25
2022-09-23T22:18:28.267Z,98543.94
2022-09-23T22:20:29.978Z,98534.91
2022-09-23T22:22:31.623Z,98536.72
2022-09-23T22:24:33.348Z,98533.19
2022-09-23T22:26:38.892Z,98533.19
2022-09-23T22:28:40.639Z,98530.53
2022-09-23T22:30:42.472Z,98529.53
2022-09-23T22:32:44.187Z,98520.78
2022-09-23T22:34:51.130Z,98526.16
2022-09-23T22:36:57.959Z,98514.53
2022-09-23T22:38:59.624Z,98510.03
2022-09-23T22:41:01.364Z,98510.88
2022-09-23T22:43:03.121Z,98506.34
2022-09-23T22:45:05.272Z,98506.19
2022-09-23T22:47:07.055Z,98498.13
2022-09-23T22:49:08.876Z,98499.97
2022-09-23T22:51:10.496Z,98491.22
2022-09-23T22:53:12.533Z,98476.09
2022-09-23T22:55:14.201Z,98487.66
2022-09-23T22:57:15.890Z,98481.44
2022-09-23T22:59:17.565Z,98474.41
2022-09-23T23:01:19.410Z,98470.72
2022-09-23T23:03:21.234Z,98470.88
2022-09-23T23:05:23.020Z,98461.94
2022-09-23T23:07:24.707Z,98462.97
2022-09-23T23:09:26.566Z,98455.75
2022-09-23T23:11:28.263Z,98449.53
2022-09-23T23:13:30.299Z,98449.53
2022-09-23T23:15:31.920Z,98447.84
2022-09-23T23:17:33.595Z,98443.59
2022-09-23T23:19:35.828Z,98446.16
2022-09-23T23:21:37.576Z,98441.78
2022-09-23T23:23:40.655Z,98442.09
2022-09-23T23:25:42.368Z,98435.72
2022-09-23T23:27:44.031Z,98438.41
2022-09-23T23:29:45.772Z,98435.72
2022-09-23T23:31:47.817Z,98434.72
2022-09-23T23:33:49.659Z,98424.28
2022-09-23T23:35:51.351Z,98419.75
2022-09-23T23:37:52.997Z,98421.28
2022-09-23T23:39:54.707Z,98418.78
2022-09-23T23:41:57.180Z,98414.22
2022-09-23T23:43:59.639Z,98415.91
2022-09-23T23:46:01.302Z,98409.69
2022-09-23T23:48:03.043Z,98405.00
2022-09-23T23:50:05.020Z,98396.13
2022-09-23T23:52:06.714Z,98388.19
2022-09-23T23:54:08.454Z,98385.66
2022-09-23T23:56:15.247Z,98380.47
2022-09-23T23:58:17.062Z,98376.25
